createdAt,value
2017-11-30T00:00:28.036Z,99402.48
2017-11-30T00:02:55.452Z,99397.00
2017-11-30T00:05:22.849Z,99391.69
2017-11-30T00:07:50.244Z,99392.67
2017-11-30T00:10:17.655Z,99387.39
2017-11-30T00:12:45.048Z,99390.02
2017-11-30T00:15:12.451Z,99387.98
2017-11-30T00:17:39.852Z,99387.48
2017-11-30T00:20:07.270Z,99388.57
2017-11-30T00:22:34.656Z,99390.36
2017-11-30T00:25:02.104Z,99386.97
2017-11-30T00:27:29.484Z,99386.42
2017-11-30T00:29:56.876Z,99389.96
2017-11-30T00:32:24.284Z,99391.36
2017-11-30T00:34:51.675Z,99392.45
2017-11-30T00:37:19.092Z,99387.48
2017-11-30T00:39:58.279Z,99395.45
2017-11-30T00:42:37.475Z,99396.78
2017-11-30T00:45:04.876Z,99390.91
2017-11-30T00:47:32.266Z,99392.91
2017-11-30T00:49:59.672Z,99390.26
2017-11-30T00:52:27.072Z,99382.16
2017-11-30T00:54:54.471Z,99379.83
2017-11-30T00:57:21.885Z,99384.71
2017-11-30T00:59:49.280Z,99382.20
2017-11-30T01:02:16.684Z,99376.33
2017-11-30T01:04:44.099Z,99371.13
2017-11-30T01:07:11.492Z,99375.55
2017-11-30T01:09:38.888Z,99378.62
2017-11-30T01:12:06.307Z,99371.77
2017-11-30T01:14:33.696Z,99375.76
2017-11-30T01:17:01.099Z,99377.34
2017-11-30T01:19:28.504Z,99378.97
2017-11-30T01:21:55.910Z,99377.23
2017-11-30T01:24:23.318Z,99369.53
2017-11-30T01:26:50.733Z,99375.48
2017-11-30T01:29:18.117Z,99376.25
2017-11-30T01:31:45.512Z,99375.58
2017-11-30T01:34:12.923Z,99370.63
2017-11-30T01:36:40.323Z,99373.17
2017-11-30T01:39:07.707Z,99377.07
2017-11-30T01:41:35.120Z,99378.38
2017-11-30T01:44:02.517Z,99373.25
2017-11-30T01:46:29.912Z,99367.27
2017-11-30T01:48:57.324Z,99368.96
2017-11-30T01:51:24.716Z,99364.58
2017-11-30T01:53:52.120Z,99363.27
2017-11-30T01:56:19.525Z,99353.95
2017-11-30T01:58:46.933Z,99352.07
2017-11-30T02:01:14.329Z,99358.51
2017-11-30T02:03:41.737Z,99357.35
2017-11-30T02:06:09.126Z,99355.05
2017-11-30T02:08:36.520Z,99357.56
2017-11-30T02:11:03.935Z,99359.06
2017-11-30T02:13:31.339Z,99357.21
2017-11-30T02:15:58.724Z,99362.03
2017-11-30T02:18:26.135Z,99354.03
2017-11-30T02:20:53.526Z,99356.97
2017-11-30T02:23:20.928Z,99357.53
2017-11-30T02:25:48.332Z,99348.84
2017-11-30T02:28:15.739Z,99352.06
2017-11-30T02:30:43.155Z,99353.31
2017-11-30T02:33:10.556Z,99354.12
2017-11-30T02:35:37.963Z,99353.16
2017-11-30T02:38:05.361Z,99355.41
2017-11-30T02:40:32.771Z,99354.88
2017-11-30T02:43:00.173Z,99357.55
2017-11-30T02:45:28.412Z,99352.22
2017-11-30T02:47:55.833Z,99354.44
2017-11-30T02:50:23.229Z,99349.66
2017-11-30T02:52:50.648Z,99352.39
2017-11-30T02:55:18.069Z,99345.11
2017-11-30T02:57:45.468Z,99348.27
2017-11-30T03:00:12.868Z,99348.34
2017-11-30T03:02:40.288Z,99344.66
2017-11-30T03:05:07.688Z,99339.28
2017-11-30T03:07:35.078Z,99334.92
2017-11-30T03:10:02.505Z,99330.06
2017-11-30T03:12:29.908Z,99323.37
2017-11-30T03:32:20.287Z,99317.16
2017-11-30T03:34:47.691Z,99310.25
2017-11-30T03:37:15.088Z,99315.52
2017-11-30T03:39:42.500Z,99317.00
2017-11-30T03:42:09.895Z,99309.69
2017-11-30T03:44:37.291Z,99316.48
2017-11-30T03:47:04.702Z,99320.03
2017-11-30T03:49:32.136Z,99317.08
2017-11-30T03:51:59.529Z,99316.98
2017-11-30T03:54:26.972Z,99315.84
2017-11-30T03:56:54.400Z,99314.25
2017-11-30T03:59:21.796Z,99314.77
2017-11-30T04:01:49.198Z,99304.16
2017-11-30T04:04:16.612Z,99313.89
2017-11-30T04:06:43.999Z,99316.89
2017-11-30T04:09:11.446Z,99315.16
2017-11-30T04:11:38.861Z,99315.98
2017-11-30T04:14:12.260Z,99308.23
2017-11-30T04:16:39.667Z,99309.27
2017-11-30T04:19:07.057Z,99306.87
2017-11-30T04:21:34.492Z,99297.27
2017-11-30T04:24:01.885Z,99305.58
2017-11-30T04:26:29.290Z,99297.60
2017-11-30T04:28:56.702Z,99303.88
2017-11-30T04:31:24.112Z,99301.80
2017-11-30T04:33:51.511Z,99301.36
2017-11-30T04:36:18.944Z,99295.80
2017-11-30T04:38:46.334Z,99290.09
2017-11-30T04:41:13.767Z,99286.90
2017-11-30T04:43:41.159Z,99284.98
2017-11-30T04:46:08.567Z,99282.67
2017-11-30T04:48:35.967Z,99283.31
2017-11-30T04:51:03.360Z,99283.91
2017-11-30T04:53:30.803Z,99281.72
2017-11-30T04:55:58.204Z,99288.72
2017-11-30T04:58:25.620Z,99293.98
2017-11-30T05:00:53.025Z,99286.59
2017-11-30T05:03:20.416Z,99286.31
2017-11-30T05:05:47.831Z,99285.20
2017-11-30T05:08:15.243Z,99279.31
2017-11-30T05:10:42.687Z,99278.54
2017-11-30T05:13:10.620Z,99277.09
2017-11-30T05:15:37.995Z,99278.23
2017-11-30T05:18:05.415Z,99281.88
2017-11-30T05:20:32.843Z,99276.75
2017-11-30T05:23:00.230Z,99268.44
2017-11-30T05:25:27.632Z,99261.47
2017-11-30T05:27:55.061Z,99253.77
2017-11-30T05:30:22.459Z,99255.67
2017-11-30T05:32:49.884Z,99258.28
2017-11-30T05:35:17.327Z,99261.51
2017-11-30T05:37:44.767Z,99258.49
2017-11-30T05:40:12.176Z,99255.58
2017-11-30T05:42:39.587Z,99255.86
2017-11-30T05:45:06.993Z,99257.77
2017-11-30T05:47:34.432Z,99255.86
2017-11-30T05:50:01.853Z,99255.16
2017-11-30T05:52:29.237Z,99251.55
2017-11-30T05:54:56.640Z,99256.58
2017-11-30T05:57:24.073Z,99258.93
2017-11-30T05:59:51.480Z,99267.84
2017-11-30T06:02:18.875Z,99260.84
2017-11-30T06:04:46.344Z,99261.82
2017-11-30T06:07:13.732Z,99248.55
2017-11-30T06:09:41.127Z,99244.34
2017-11-30T06:12:08.540Z,99244.63
2017-11-30T06:14:35.956Z,99247.79
2017-11-30T06:17:03.350Z,99254.27
2017-11-30T06:19:30.791Z,99251.33
2017-11-30T06:21:58.201Z,99252.20
2017-11-30T06:24:25.653Z,99250.08
2017-11-30T06:26:53.060Z,99252.00
2017-11-30T06:29:20.488Z,99251.34
2017-11-30T06:31:47.937Z,99252.17
2017-11-30T06:34:15.347Z,99247.84
2017-11-30T06:36:42.759Z,99246.31
2017-11-30T06:39:10.152Z,99249.36
2017-11-30T06:41:37.563Z,99248.53
2017-11-30T06:44:04.959Z,99249.95
2017-11-30T06:46:32.387Z,99252.55
2017-11-30T06:48:59.795Z,99248.75
2017-11-30T06:51:27.199Z,99247.09
2017-11-30T06:53:54.638Z,99243.91
2017-11-30T06:56:22.032Z,99239.66
2017-11-30T06:58:49.440Z,99248.00
2017-11-30T07:01:16.839Z,99246.13
2017-11-30T07:03:44.245Z,99242.27
2017-11-30T07:06:11.652Z,99247.36
2017-11-30T07:08:39.079Z,99248.58
2017-11-30T07:11:06.500Z,99249.16
2017-11-30T07:13:33.902Z,99251.84
2017-11-30T07:16:01.324Z,99254.06
2017-11-30T07:18:29.052Z,99254.34
2017-11-30T07:20:56.467Z,99257.91
2017-11-30T07:23:23.893Z,99257.78
2017-11-30T07:25:51.389Z,99261.17
2017-11-30T07:28:18.797Z,99259.88
2017-11-30T07:30:46.206Z,99260.77
2017-11-30T07:33:13.660Z,99263.72
2017-11-30T07:35:41.101Z,99261.64
2017-11-30T07:38:08.503Z,99261.92
2017-11-30T07:40:35.948Z,99260.70
2017-11-30T07:43:03.409Z,99259.16
2017-11-30T07:45:30.816Z,99260.78
2017-11-30T07:47:58.220Z,99258.56
2017-11-30T07:50:25.620Z,99264.89
2017-11-30T07:52:53.037Z,99267.04
2017-11-30T07:55:20.461Z,99259.83
2017-11-30T07:57:47.859Z,99257.50
2017-11-30T08:00:15.243Z,99257.15
2017-11-30T08:02:42.651Z,99265.08
2017-11-30T08:05:10.073Z,99258.59
2017-11-30T08:07:37.503Z,99259.45
2017-11-30T08:10:04.942Z,99256.42
2017-11-30T08:12:32.354Z,99262.39
2017-11-30T08:14:59.764Z,99267.17
2017-11-30T08:17:27.192Z,99270.04
2017-11-30T08:19:54.600Z,99266.09
2017-11-30T08:22:22.010Z,99264.84
2017-11-30T08:24:49.440Z,99265.98
2017-11-30T08:27:16.856Z,99263.58
2017-11-30T08:29:44.252Z,99264.72
2017-11-30T08:32:11.662Z,99257.11
2017-11-30T08:34:39.051Z,99259.75
2017-11-30T08:37:06.450Z,99261.97
2017-11-30T08:39:33.869Z,99265.15
2017-11-30T08:42:01.261Z,99258.95
2017-11-30T08:44:28.658Z,99266.94
2017-11-30T08:46:56.073Z,99261.58
2017-11-30T08:49:23.484Z,99261.45
2017-11-30T08:51:50.892Z,99263.59
2017-11-30T08:54:18.325Z,99254.81
2017-11-30T08:56:45.718Z,99259.69
2017-11-30T08:59:13.124Z,99256.75
2017-11-30T09:01:40.533Z,99257.00
2017-11-30T09:04:07.936Z,99258.00
2017-11-30T09:06:35.335Z,99254.37
2017-11-30T09:09:02.744Z,99248.86
2017-11-30T09:11:30.139Z,99252.34
2017-11-30T09:13:57.549Z,99252.67
2017-11-30T09:16:24.979Z,99246.29
2017-11-30T09:18:52.423Z,99251.48
2017-11-30T09:21:19.817Z,99248.48
2017-11-30T09:23:47.233Z,99253.36
2017-11-30T09:26:14.629Z,99245.63
2017-11-30T09:28:42.023Z,99247.25
2017-11-30T09:31:09.427Z,99241.30
2017-11-30T09:33:36.827Z,99234.03
2017-11-30T09:36:04.216Z,99238.80
2017-11-30T09:38:31.632Z,99231.80
2017-11-30T09:40:59.028Z,99241.85
2017-11-30T09:43:26.581Z,99235.03
2017-11-30T09:45:54.025Z,99242.25
2017-11-30T09:48:21.432Z,99236.27
2017-11-30T09:50:48.848Z,99239.61
2017-11-30T09:53:16.272Z,99234.16
2017-11-30T09:55:43.677Z,99233.34
2017-11-30T09:58:11.076Z,99236.70
2017-11-30T10:00:38.507Z,99220.51
2017-11-30T10:03:05.944Z,99225.09
2017-11-30T10:05:33.385Z,99223.98
2017-11-30T10:08:00.827Z,99217.61
2017-11-30T10:10:28.249Z,99215.98
2017-11-30T10:12:55.631Z,99217.00
2017-11-30T10:15:23.037Z,99212.94
2017-11-30T10:17:50.428Z,99209.41
2017-11-30T10:20:17.882Z,99207.36
2017-11-30T10:22:45.287Z,99204.73
2017-11-30T10:25:12.707Z,99198.66
2017-11-30T10:27:40.113Z,99207.07
2017-11-30T10:30:07.532Z,99205.77
2017-11-30T10:32:34.951Z,99208.30
2017-11-30T10:35:02.356Z,99205.05
2017-11-30T10:37:29.801Z,99203.09
2017-11-30T10:39:57.229Z,99200.68
2017-11-30T10:42:24.647Z,99198.64
2017-11-30T10:44:52.068Z,99198.75
2017-11-30T10:47:19.468Z,99191.91
2017-11-30T10:49:46.864Z,99194.98
2017-11-30T10:52:14.295Z,99192.45
2017-11-30T10:54:41.710Z,99192.94
2017-11-30T10:57:09.120Z,99186.91
2017-11-30T10:59:36.552Z,99185.59
2017-11-30T11:02:03.958Z,99185.64
2017-11-30T11:04:31.370Z,99181.48
2017-11-30T11:06:58.784Z,99176.89
2017-11-30T11:09:26.197Z,99177.48
2017-11-30T11:11:53.600Z,99178.35
2017-11-30T11:14:21.060Z,99183.88
2017-11-30T11:16:48.471Z,99175.12
2017-11-30T11:19:15.908Z,99173.66
2017-11-30T11:21:43.317Z,99176.63
2017-11-30T11:24:10.744Z,99176.80
2017-11-30T11:26:38.146Z,99170.09
2017-11-30T11:29:05.612Z,99165.75
2017-11-30T11:31:33.008Z,99174.29
2017-11-30T11:34:00.406Z,99167.11
2017-11-30T11:36:27.831Z,99174.02
2017-11-30T11:38:55.278Z,99171.70
2017-11-30T11:41:22.684Z,99163.27
2017-11-30T11:43:50.156Z,99162.48
2017-11-30T11:46:17.560Z,99160.12
2017-11-30T11:48:44.979Z,99161.45
2017-11-30T11:51:12.473Z,99160.00
2017-11-30T11:53:39.885Z,99157.97
2017-11-30T11:56:07.291Z,99156.27
2017-11-30T11:58:34.692Z,99162.03
2017-11-30T12:01:02.090Z,99156.91
2017-11-30T12:03:29.549Z,99158.80
2017-11-30T12:05:56.986Z,99158.52
2017-11-30T12:08:24.412Z,99156.86
2017-11-30T12:10:51.790Z,99159.29
2017-11-30T12:13:19.227Z,99155.04
2017-11-30T12:15:46.689Z,99153.77
2017-11-30T12:18:14.088Z,99154.37
2017-11-30T12:20:41.508Z,99152.14
2017-11-30T12:23:08.899Z,99153.94
2017-11-30T12:25:36.343Z,99149.59
2017-11-30T12:28:03.765Z,99151.58
2017-11-30T12:30:31.151Z,99145.83
2017-11-30T12:32:58.561Z,99147.03
2017-11-30T12:35:25.982Z,99142.30
2017-11-30T12:37:53.394Z,99148.20
2017-11-30T12:40:20.811Z,99149.84
2017-11-30T12:42:48.224Z,99148.15
2017-11-30T12:45:15.623Z,99151.75
2017-11-30T12:47:43.031Z,99153.27
2017-11-30T12:50:10.443Z,99140.39
2017-11-30T12:52:37.852Z,99136.35
2017-11-30T12:55:05.274Z,99141.48
2017-11-30T12:57:32.694Z,99137.98
2017-11-30T13:00:00.100Z,99125.96
2017-11-30T13:02:27.529Z,99130.13
2017-11-30T13:04:54.946Z,99137.35
2017-11-30T13:07:22.346Z,99129.50
2017-11-30T13:09:49.758Z,99130.17
2017-11-30T13:12:17.166Z,99127.88
2017-11-30T13:14:44.604Z,99129.15
2017-11-30T13:17:12.270Z,99131.05
2017-11-30T13:19:39.690Z,99131.78
2017-11-30T13:22:07.090Z,99135.28
2017-11-30T13:24:34.491Z,99125.25
2017-11-30T13:27:01.935Z,99128.62
2017-11-30T13:29:29.373Z,99128.83
2017-11-30T13:31:56.778Z,99127.72
2017-11-30T13:34:24.226Z,99127.31
2017-11-30T13:36:51.622Z,99123.48
2017-11-30T13:39:19.036Z,99125.09
2017-11-30T13:41:46.484Z,99130.05
2017-11-30T13:44:13.934Z,99139.25
2017-11-30T13:46:41.282Z,99130.10
2017-11-30T13:49:08.686Z,99127.25
2017-11-30T13:51:36.087Z,99124.62
2017-11-30T13:54:03.494Z,99130.60
2017-11-30T13:56:30.936Z,99127.48
2017-11-30T13:58:58.327Z,99133.57
2017-11-30T14:01:25.733Z,99135.30
2017-11-30T14:03:53.190Z,99131.02
2017-11-30T14:06:20.578Z,99134.67
2017-11-30T14:08:48.000Z,99135.38
2017-11-30T14:11:15.446Z,99138.21
2017-11-30T14:13:42.825Z,99144.48
2017-11-30T14:16:10.288Z,99139.50
2017-11-30T14:18:37.698Z,99142.96
2017-11-30T14:21:05.104Z,99144.78
2017-11-30T14:23:32.508Z,99152.83
2017-11-30T14:25:59.919Z,99153.52
2017-11-30T14:28:27.374Z,99150.89
2017-11-30T14:30:54.791Z,99150.14
2017-11-30T14:33:22.206Z,99157.95
2017-11-30T14:35:49.623Z,99153.23
2017-11-30T14:38:17.026Z,99157.27
2017-11-30T14:40:44.446Z,99162.07
2017-11-30T14:43:11.850Z,99161.83
2017-11-30T14:45:39.246Z,99163.08
2017-11-30T14:48:06.694Z,99167.20
2017-11-30T14:50:34.082Z,99163.86
2017-11-30T14:53:01.492Z,99168.96
2017-11-30T14:55:28.931Z,99164.38
2017-11-30T14:57:56.466Z,99166.19
2017-11-30T15:00:23.868Z,99164.09
2017-11-30T15:02:51.462Z,99166.34
2017-11-30T15:05:18.929Z,99169.16
2017-11-30T15:07:46.322Z,99171.09
2017-11-30T15:10:14.679Z,99170.06
2017-11-30T15:12:42.136Z,99171.70
2017-11-30T15:15:09.583Z,99172.19
2017-11-30T15:17:37.016Z,99169.36
2017-11-30T15:20:04.418Z,99175.35
2017-11-30T15:22:31.840Z,99176.08
2017-11-30T15:24:59.258Z,99175.46
2017-11-30T15:27:26.642Z,99175.89
2017-11-30T15:29:54.074Z,99174.66
2017-11-30T15:32:21.526Z,99175.60
2017-11-30T15:34:48.930Z,99176.64
2017-11-30T15:37:16.339Z,99175.33
2017-11-30T15:39:43.748Z,99177.34
2017-11-30T15:42:11.141Z,99170.34
2017-11-30T15:44:38.572Z,99174.72
2017-11-30T15:47:05.982Z,99173.94
2017-11-30T15:49:33.394Z,99174.84
2017-11-30T15:52:00.803Z,99179.92
2017-11-30T15:54:28.242Z,99174.23
2017-11-30T15:56:55.634Z,99182.16
2017-11-30T15:59:23.070Z,99182.95
2017-11-30T16:01:50.479Z,99182.47
2017-11-30T16:04:17.922Z,99182.49
2017-11-30T16:06:45.334Z,99179.74
2017-11-30T16:09:12.814Z,99176.38
2017-11-30T16:11:40.226Z,99176.95
2017-11-30T16:14:07.587Z,99184.79
2017-11-30T16:16:35.048Z,99182.04
2017-11-30T16:19:02.437Z,99187.21
2017-11-30T16:21:29.876Z,99186.91
2017-11-30T16:23:57.275Z,99185.08
2017-11-30T16:26:24.683Z,99188.22
2017-11-30T16:28:52.116Z,99187.20
2017-11-30T16:31:19.531Z,99190.35
2017-11-30T16:33:46.935Z,99191.98
2017-11-30T16:36:14.320Z,99192.48
2017-11-30T16:38:41.761Z,99184.18
2017-11-30T16:41:09.174Z,99191.98
2017-11-30T16:43:36.608Z,99189.55
2017-11-30T16:46:04.030Z,99193.31
2017-11-30T16:48:31.441Z,99192.72
2017-11-30T16:50:58.907Z,99196.56
2017-11-30T16:53:26.327Z,99190.88
2017-11-30T16:55:53.702Z,99197.59
2017-11-30T16:58:21.099Z,99198.50
2017-11-30T17:00:49.103Z,99192.00
2017-11-30T17:03:16.514Z,99196.88
2017-11-30T17:05:43.906Z,99192.81
2017-11-30T17:08:15.074Z,99197.70
2017-11-30T17:10:42.797Z,99195.67
2017-11-30T17:13:11.087Z,99206.14
2017-11-30T17:15:39.094Z,99211.44
2017-11-30T17:18:06.827Z,99210.81
2017-11-30T17:20:34.238Z,99207.30
2017-11-30T17:23:01.673Z,99214.08
2017-11-30T17:25:29.090Z,99217.23
2017-11-30T17:27:56.514Z,99236.88
2017-11-30T17:30:23.925Z,99232.25
2017-11-30T17:32:54.158Z,99223.85
2017-11-30T17:35:21.554Z,99233.10
2017-11-30T17:37:48.969Z,99233.17
2017-11-30T17:40:16.374Z,99223.30
2017-11-30T17:42:43.814Z,99225.59
2017-11-30T17:45:11.238Z,99233.91
2017-11-30T17:47:38.646Z,99229.89
2017-11-30T17:50:06.086Z,99227.89
2017-11-30T17:52:33.508Z,99228.38
2017-11-30T17:55:00.913Z,99227.23
2017-11-30T17:57:28.435Z,99233.33
2017-11-30T17:59:55.871Z,99226.99
2017-11-30T18:02:23.322Z,99227.31
2017-11-30T18:04:50.726Z,99228.75
2017-11-30T18:07:18.178Z,99236.33
2017-11-30T18:09:45.578Z,99231.34
2017-11-30T18:12:12.967Z,99233.23
2017-11-30T18:14:40.450Z,99232.34
2017-11-30T18:17:07.854Z,99231.59
2017-11-30T18:19:35.270Z,99231.59
2017-11-30T18:22:02.702Z,99238.42
2017-11-30T18:24:30.100Z,99240.45
2017-11-30T18:26:57.533Z,99239.23
2017-11-30T18:29:24.955Z,99241.41
2017-11-30T18:31:52.342Z,99242.02
2017-11-30T18:34:19.749Z,99248.64
2017-11-30T18:36:47.155Z,99249.15
2017-11-30T18:39:14.574Z,99251.64
2017-11-30T18:41:41.980Z,99247.71
2017-11-30T18:44:09.443Z,99250.98
2017-11-30T18:46:36.854Z,99250.88
2017-11-30T18:49:04.247Z,99256.46
2017-11-30T18:51:32.768Z,99256.48
2017-11-30T18:54:00.154Z,99250.59
2017-11-30T18:56:27.705Z,99260.33
2017-11-30T18:58:56.103Z,99261.95
2017-11-30T19:01:23.494Z,99262.25
2017-11-30T19:03:51.554Z,99256.35
2017-11-30T19:06:18.960Z,99257.98
2017-11-30T19:08:46.349Z,99265.45
2017-11-30T19:11:15.190Z,99261.20
2017-11-30T19:13:42.595Z,99263.65
2017-11-30T19:16:10.023Z,99270.08
2017-11-30T19:18:37.419Z,99266.23
2017-11-30T19:21:04.860Z,99273.44
2017-11-30T19:23:32.278Z,99272.92
2017-11-30T19:25:59.689Z,99271.00
2017-11-30T19:28:27.286Z,99269.40
2017-11-30T19:30:54.705Z,99269.23
2017-11-30T19:33:22.110Z,99275.20
2017-11-30T19:35:49.530Z,99275.02
2017-11-30T19:38:17.076Z,99270.27
2017-11-30T19:40:44.466Z,99272.70
2017-11-30T19:43:11.870Z,99271.61
2017-11-30T19:45:39.312Z,99275.55
2017-11-30T19:48:06.698Z,99278.27
2017-11-30T19:50:34.115Z,99281.33
2017-11-30T19:53:01.506Z,99284.99
2017-11-30T19:55:28.914Z,99284.94
2017-11-30T19:57:56.367Z,99286.14
2017-11-30T20:00:23.826Z,99294.06
2017-11-30T20:02:51.273Z,99296.41
2017-11-30T20:05:18.690Z,99292.74
2017-11-30T20:07:46.087Z,99296.55
2017-11-30T20:10:13.480Z,99286.52
2017-11-30T20:12:40.922Z,99293.73
2017-11-30T20:15:11.902Z,99293.44
2017-11-30T20:17:40.481Z,99300.14
2017-11-30T20:22:45.978Z,99298.39
2017-11-30T20:25:13.378Z,99302.55
2017-11-30T20:27:40.790Z,99296.97
2017-11-30T20:30:08.598Z,99299.39
2017-11-30T20:32:36.034Z,99301.92
2017-11-30T20:35:03.435Z,99303.59
2017-11-30T20:37:30.843Z,99302.95
2017-11-30T20:39:58.242Z,99301.13
2017-11-30T20:42:25.642Z,99305.81
2017-11-30T20:44:53.054Z,99308.88
2017-11-30T20:47:20.466Z,99311.14
2017-11-30T20:49:47.857Z,99315.28
2017-11-30T20:52:15.864Z,99312.16
2017-11-30T20:54:43.262Z,99313.16
2017-11-30T20:57:10.654Z,99312.45
2017-11-30T20:59:38.066Z,99315.27
2017-11-30T21:02:05.525Z,99320.75
2017-11-30T21:04:32.914Z,99311.69
2017-11-30T21:07:00.366Z,99317.64
2017-11-30T21:09:27.749Z,99315.75
2017-11-30T21:11:55.160Z,99318.97
2017-11-30T21:14:22.581Z,99320.01
2017-11-30T21:16:49.980Z,99327.56
2017-11-30T21:19:17.366Z,99322.75
2017-11-30T21:21:44.775Z,99329.78
2017-11-30T21:24:12.173Z,99322.19
2017-11-30T21:26:39.588Z,99323.58
2017-11-30T21:29:07.015Z,99329.34
2017-11-30T21:31:34.406Z,99335.38
2017-11-30T21:34:01.814Z,99341.14
2017-11-30T21:36:29.247Z,99341.31
2017-11-30T21:38:56.638Z,99346.89
2017-11-30T21:41:24.038Z,99347.41
2017-11-30T21:43:51.446Z,99348.39
2017-11-30T21:46:18.889Z,99346.49
2017-11-30T21:48:46.297Z,99347.05
2017-11-30T21:51:13.711Z,99354.64
2017-11-30T21:53:41.118Z,99353.56
2017-11-30T21:56:08.522Z,99360.39
2017-11-30T21:58:36.035Z,99362.30
2017-11-30T22:01:03.430Z,99366.84
2017-11-30T22:03:30.831Z,99367.39
2017-11-30T22:05:58.235Z,99368.02
2017-11-30T22:08:25.638Z,99373.95
2017-11-30T22:10:53.039Z,99366.77
2017-11-30T22:13:20.446Z,99370.93
2017-11-30T22:15:47.838Z,99369.92
2017-11-30T22:18:15.251Z,99372.11
2017-11-30T22:20:42.658Z,99369.48
2017-11-30T22:23:10.051Z,99364.77
2017-11-30T22:25:37.451Z,99370.03
2017-11-30T22:28:04.866Z,99374.88
2017-11-30T22:30:32.262Z,99375.16
2017-11-30T22:32:59.655Z,99384.17
2017-11-30T22:35:27.075Z,99388.47
2017-11-30T22:37:54.478Z,99384.69
2017-11-30T22:40:21.921Z,99388.78
2017-11-30T22:42:49.330Z,99388.85
2017-11-30T22:45:16.742Z,99397.59
2017-11-30T22:47:44.129Z,99393.15
2017-11-30T22:50:11.547Z,99386.88
2017-11-30T22:52:38.939Z,99390.90
2017-11-30T22:55:06.358Z,99391.45
2017-11-30T22:57:33.828Z,99396.72
2017-11-30T23:00:01.172Z,99398.31
2017-11-30T23:02:28.569Z,99400.84
2017-11-30T23:04:55.982Z,99402.30
2017-11-30T23:07:23.382Z,99403.17
2017-11-30T23:09:50.778Z,99408.05
2017-11-30T23:12:18.190Z,99404.31
2017-11-30T23:14:45.586Z,99404.09
2017-11-30T23:17:13.001Z,99398.62
2017-11-30T23:19:40.406Z,99407.48
2017-11-30T23:22:07.806Z,99413.80
2017-11-30T23:24:35.202Z,99414.90
2017-11-30T23:27:02.616Z,99413.94
2017-11-30T23:29:30.019Z,99416.14
2017-11-30T23:31:57.427Z,99411.19
2017-11-30T23:34:24.836Z,99415.38
2017-11-30T23:36:52.238Z,99414.67
2017-11-30T23:39:19.642Z,99419.13
2017-11-30T23:41:47.062Z,99415.80
2017-11-30T23:44:14.457Z,99420.52
2017-11-30T23:46:41.865Z,99422.07
2017-11-30T23:49:09.274Z,99421.88
2017-11-30T23:51:36.662Z,99427.57
2017-11-30T23:54:04.098Z,99435.16
2017-11-30T23:56:31.488Z,99434.12
2017-11-30T23:58:58.878Z,99439.44
